createdAt,value
2023-11-04T00:00:05.010Z,84.22
2023-11-04T00:02:05.462Z,84.94
2023-11-04T00:03:05.172Z,84.84
2023-11-04T00:04:05.204Z,84.84
2023-11-04T00:05:04.992Z,84.74
2023-11-04T00:06:05.496Z,84.84
2023-11-04T00:07:04.954Z,84.84
2023-11-04T00:08:04.996Z,84.84
2023-11-04T00:09:05.008Z,84.94
2023-11-04T00:10:04.999Z,85.19
2023-11-04T00:11:04.969Z,85.05
2023-11-04T00:12:04.932Z,85.50
2023-11-04T00:13:04.924Z,84.99
2023-11-04T00:14:04.927Z,85.50
2023-11-04T00:15:04.954Z,85.81
2023-11-04T00:16:04.912Z,85.71
2023-11-04T00:17:04.893Z,86.02
2023-11-04T00:18:04.925Z,86.02
2023-11-04T00:19:04.986Z,85.81
2023-11-04T00:20:04.886Z,86.53
2023-11-04T00:21:04.947Z,87.35
2023-11-04T00:22:04.923Z,87.46
2023-11-04T00:23:04.864Z,86.94
2023-11-04T00:24:04.864Z,86.53
2023-11-04T00:25:04.843Z,86.63
2023-11-04T00:26:04.861Z,86.74
2023-11-04T00:27:04.883Z,86.74
2023-11-04T00:28:04.908Z,86.60
2023-11-04T00:29:04.810Z,86.53
2023-11-04T00:30:04.846Z,86.63
2023-11-04T00:31:04.812Z,86.49
2023-11-04T00:32:06.357Z,86.60
2023-11-04T00:33:05.407Z,86.60
2023-11-04T00:34:04.971Z,86.70
2023-11-04T00:35:04.980Z,86.76
2023-11-04T00:36:04.744Z,86.08
2023-11-04T00:37:04.755Z,86.66
2023-11-04T00:38:04.760Z,86.80
2023-11-04T00:39:04.822Z,86.97
2023-11-04T00:40:04.748Z,86.15
2023-11-04T00:41:04.793Z,86.66
2023-11-04T00:42:04.991Z,86.90
2023-11-04T00:43:04.730Z,86.70
2023-11-04T00:44:04.749Z,86.76
2023-11-04T00:45:04.790Z,86.15
2023-11-04T00:46:04.721Z,86.87
2023-11-04T00:47:04.931Z,86.87
2023-11-04T00:48:04.693Z,86.97
2023-11-04T00:49:04.756Z,87.17
2023-11-04T00:50:14.683Z,86.87
2023-11-04T00:51:05.753Z,86.55
2023-11-04T00:52:04.661Z,86.45
2023-11-04T00:53:04.708Z,86.35
2023-11-04T00:54:04.630Z,86.45
2023-11-04T00:55:04.824Z,86.55
2023-11-04T00:56:04.637Z,86.55
2023-11-04T00:57:04.935Z,86.97
2023-11-04T00:58:04.630Z,86.66
2023-11-04T00:59:04.620Z,86.35
2023-11-04T01:00:04.582Z,86.97
2023-11-04T01:01:04.576Z,86.76
2023-11-04T01:02:04.581Z,87.27
2023-11-04T01:03:04.662Z,87.38
2023-11-04T01:04:04.665Z,87.38
2023-11-04T01:05:04.609Z,87.07
2023-11-04T01:06:04.550Z,87.07
2023-11-04T01:07:04.567Z,87.59
2023-11-04T01:08:04.554Z,87.59
2023-11-04T01:09:04.789Z,87.99
2023-11-04T01:10:04.522Z,88.51
2023-11-04T01:11:04.506Z,87.65
2023-11-04T01:12:04.507Z,86.97
2023-11-04T01:13:04.510Z,87.48
2023-11-04T01:14:04.489Z,87.44
2023-11-04T01:15:04.502Z,87.34
2023-11-04T01:16:04.479Z,87.65
2023-11-04T01:17:04.514Z,87.48
2023-11-04T01:18:04.955Z,87.44
2023-11-04T01:19:04.558Z,87.44
2023-11-04T01:20:04.592Z,87.24
2023-11-04T01:21:04.459Z,86.61
2023-11-04T01:22:04.446Z,86.52
2023-11-04T01:23:04.483Z,86.41
2023-11-04T01:24:04.434Z,86.41
2023-11-04T01:25:04.426Z,86.93
2023-11-04T01:26:04.416Z,86.93
2023-11-04T01:27:04.408Z,86.61
2023-11-04T01:28:04.426Z,86.82
2023-11-04T01:29:04.392Z,86.93
2023-11-04T01:30:04.410Z,86.82
2023-11-04T01:31:04.407Z,86.93
2023-11-04T01:32:06.778Z,87.03
2023-11-04T01:33:04.450Z,86.72
2023-11-04T01:34:04.435Z,86.21
2023-11-04T01:35:04.453Z,86.52
2023-11-04T01:36:04.369Z,85.96
2023-11-04T01:37:04.385Z,85.65
2023-11-04T01:38:04.395Z,85.86
2023-11-04T01:39:04.390Z,85.75
2023-11-04T01:40:04.333Z,85.65
2023-11-04T01:41:04.334Z,85.55
2023-11-04T01:42:04.336Z,85.75
2023-11-04T01:43:04.343Z,85.65
2023-11-04T01:44:04.298Z,85.86
2023-11-04T01:45:04.289Z,85.65
2023-11-04T01:46:04.284Z,85.24
2023-11-04T01:47:04.307Z,85.75
2023-11-04T01:48:04.356Z,85.55
2023-11-04T01:49:04.430Z,85.14
2023-11-04T01:50:04.260Z,84.83
2023-11-04T01:51:04.254Z,85.20
2023-11-04T01:52:04.280Z,84.83
2023-11-04T01:53:04.283Z,85.20
2023-11-04T01:54:04.242Z,85.65
2023-11-04T01:55:04.784Z,84.99
2023-11-04T01:56:04.238Z,85.34
2023-11-04T01:57:04.246Z,85.14
2023-11-04T01:58:04.330Z,84.83
2023-11-04T01:59:04.251Z,84.72
2023-11-04T02:00:04.208Z,84.72
2023-11-04T02:01:04.197Z,85.10
2023-11-04T02:02:04.181Z,85.03
2023-11-04T02:03:04.230Z,84.93
2023-11-04T02:04:04.299Z,84.83
2023-11-04T02:05:04.258Z,84.62
2023-11-04T02:06:04.259Z,84.83
2023-11-04T02:07:04.157Z,84.62
2023-11-04T02:08:04.146Z,85.03
2023-11-04T02:09:04.192Z,84.62
2023-11-04T02:10:04.154Z,84.00
2023-11-04T02:11:04.160Z,83.80
2023-11-04T02:12:04.130Z,83.80
2023-11-04T02:13:04.134Z,83.97
2023-11-04T02:14:04.112Z,84.11
2023-11-04T02:15:04.116Z,84.21
2023-11-04T02:16:04.092Z,84.42
2023-11-04T02:17:04.083Z,83.49
2023-11-04T02:18:04.084Z,83.04
2023-11-04T02:19:04.305Z,82.63
2023-11-04T02:20:04.182Z,82.42
2023-11-04T02:21:04.070Z,82.21
2023-11-04T02:22:04.051Z,82.21
2023-11-04T02:23:04.050Z,82.01
2023-11-04T02:24:04.069Z,82.32
2023-11-04T02:25:04.038Z,82.21
2023-11-04T02:26:04.032Z,82.83
2023-11-04T02:27:04.054Z,82.77
2023-11-04T02:28:04.014Z,82.83
2023-11-04T02:29:04.023Z,82.42
2023-11-04T02:30:03.996Z,82.11
2023-11-04T02:31:04.002Z,81.60
2023-11-04T02:32:03.991Z,81.25
2023-11-04T02:33:04.012Z,81.81
2023-11-04T02:34:04.253Z,82.01
2023-11-04T02:35:03.977Z,81.91
2023-11-04T02:36:03.968Z,81.29
2023-11-04T02:37:03.962Z,81.91
2023-11-04T02:38:03.958Z,81.39
2023-11-04T02:39:03.964Z,80.98
2023-11-04T02:40:03.959Z,81.09
2023-11-04T02:41:03.975Z,80.47
2023-11-04T02:42:03.943Z,80.47
2023-11-04T02:43:03.967Z,80.67
2023-11-04T02:44:03.909Z,81.05
2023-11-04T02:45:03.929Z,80.88
2023-11-04T02:46:03.903Z,81.25
2023-11-04T02:47:03.900Z,81.29
2023-11-04T02:48:04.755Z,80.94
2023-11-04T02:49:04.002Z,80.88
2023-11-04T02:50:03.905Z,80.53
2023-11-04T02:51:03.890Z,80.77
2023-11-04T02:52:09.122Z,81.25
2023-11-04T02:53:04.858Z,80.74
2023-11-04T02:54:03.887Z,80.43
2023-11-04T02:55:03.888Z,80.47
2023-11-04T02:56:03.824Z,80.36
2023-11-04T02:57:03.819Z,79.81
2023-11-04T02:58:03.835Z,80.02
2023-11-04T02:59:03.877Z,80.53
2023-11-04T03:00:03.832Z,79.71
2023-11-04T03:01:03.825Z,80.12
2023-11-04T03:02:03.805Z,80.12
2023-11-04T03:03:03.898Z,80.43
2023-11-04T03:04:04.015Z,80.22
2023-11-04T03:05:03.813Z,80.43
2023-11-04T03:06:03.773Z,80.84
2023-11-04T03:07:03.778Z,80.88
2023-11-04T03:08:03.754Z,80.53
2023-11-04T03:09:03.762Z,80.05
2023-11-04T03:10:03.775Z,80.36
2023-11-04T03:11:03.749Z,80.02
2023-11-04T03:12:03.770Z,80.33
2023-11-04T03:13:03.855Z,80.33
2023-11-04T03:14:03.716Z,80.36
2023-11-04T03:15:03.728Z,80.43
2023-11-04T03:16:03.709Z,80.33
2023-11-04T03:17:03.795Z,80.16
2023-11-04T03:18:03.844Z,79.91
2023-11-04T03:19:03.840Z,79.81
2023-11-04T03:20:03.688Z,79.81
2023-11-04T03:21:03.664Z,79.85
2023-11-04T03:22:03.687Z,79.81
2023-11-04T03:23:03.681Z,79.50
2023-11-04T03:24:03.648Z,79.50
2023-11-04T03:25:03.632Z,79.61
2023-11-04T03:26:03.625Z,79.81
2023-11-04T03:27:03.724Z,79.81
2023-11-04T03:28:03.930Z,79.81
2023-11-04T03:29:03.626Z,79.81
2023-11-04T03:30:03.602Z,79.81
2023-11-04T03:31:03.624Z,80.02
2023-11-04T03:32:03.602Z,79.91
2023-11-04T03:33:03.691Z,80.12
2023-11-04T03:34:03.657Z,79.50
2023-11-04T03:35:03.595Z,79.61
2023-11-04T03:36:03.561Z,79.50
2023-11-04T03:37:03.658Z,79.61
2023-11-04T03:38:03.551Z,79.71
2023-11-04T03:39:03.567Z,79.61
2023-11-04T03:40:03.575Z,79.71
2023-11-04T03:41:03.530Z,79.61
2023-11-04T03:42:03.542Z,79.50
2023-11-04T03:43:03.517Z,79.91
2023-11-04T03:44:03.507Z,80.12
2023-11-04T03:45:03.534Z,79.71
2023-11-04T03:46:04.361Z,79.61
2023-11-04T03:47:03.636Z,79.30
2023-11-04T03:48:03.590Z,79.91
2023-11-04T03:49:03.593Z,79.61
2023-11-04T03:50:03.479Z,79.71
2023-11-04T03:51:03.474Z,79.61
2023-11-04T03:52:03.499Z,79.61
2023-11-04T03:53:03.452Z,79.71
2023-11-04T03:54:03.456Z,79.61
2023-11-04T03:55:03.460Z,79.81
2023-11-04T03:56:03.432Z,79.81
2023-11-04T03:57:03.488Z,79.50
2023-11-04T03:58:03.459Z,79.81
2023-11-04T03:59:03.424Z,79.71
2023-11-04T04:00:03.406Z,79.81
2023-11-04T04:01:03.407Z,79.50
2023-11-04T04:02:03.400Z,79.50
2023-11-04T04:03:03.662Z,79.81
2023-11-04T04:04:03.490Z,79.81
2023-11-04T04:05:03.441Z,80.02
2023-11-04T04:06:03.768Z,80.02
2023-11-04T04:07:03.391Z,79.61
2023-11-04T04:08:03.367Z,79.71
2023-11-04T04:09:03.356Z,79.50
2023-11-04T04:10:03.374Z,79.61
2023-11-04T04:11:03.450Z,79.75
2023-11-04T04:12:03.328Z,79.71
2023-11-04T04:13:03.333Z,79.61
2023-11-04T04:14:03.313Z,79.71
2023-11-04T04:15:03.322Z,79.40
2023-11-04T04:16:03.397Z,79.61
2023-11-04T04:17:03.300Z,79.91
2023-11-04T04:18:03.393Z,79.71
2023-11-04T04:19:03.381Z,79.81
2023-11-04T04:20:03.281Z,79.71
2023-11-04T04:21:03.273Z,79.91
2023-11-04T04:22:03.305Z,80.02
2023-11-04T04:23:03.266Z,80.02
2023-11-04T04:24:03.252Z,79.44
2023-11-04T04:25:03.247Z,79.30
2023-11-04T04:26:03.239Z,79.64
2023-11-04T04:27:03.248Z,79.71
2023-11-04T04:28:03.254Z,79.85
2023-11-04T04:29:03.233Z,79.44
2023-11-04T04:30:03.223Z,79.75
2023-11-04T04:31:03.218Z,79.44
2023-11-04T04:32:03.200Z,79.85
2023-11-04T04:33:03.235Z,79.88
2023-11-04T04:34:03.291Z,79.75
2023-11-04T04:35:03.218Z,80.05
2023-11-04T04:36:03.181Z,79.75
2023-11-04T04:37:03.189Z,80.19
2023-11-04T04:38:03.165Z,80.40
2023-11-04T04:39:03.164Z,80.30
2023-11-04T04:40:03.210Z,80.19
2023-11-04T04:41:03.144Z,80.19
2023-11-04T04:42:03.143Z,80.61
2023-11-04T04:43:03.131Z,80.30
2023-11-04T04:44:03.124Z,80.19
2023-11-04T04:45:03.130Z,80.09
2023-11-04T04:46:03.206Z,80.19
2023-11-04T04:47:03.227Z,80.51
2023-11-04T04:48:03.113Z,79.99
2023-11-04T04:49:03.135Z,80.19
2023-11-04T04:50:03.082Z,80.09
2023-11-04T04:51:03.098Z,80.05
2023-11-04T04:52:03.203Z,80.05
2023-11-04T04:53:03.060Z,79.85
2023-11-04T04:54:03.052Z,79.54
2023-11-04T04:55:03.058Z,79.95
2023-11-04T04:56:03.247Z,79.64
2023-11-04T04:57:03.044Z,79.75
2023-11-04T04:58:03.193Z,79.95
2023-11-04T04:59:03.028Z,79.54
2023-11-04T05:00:03.016Z,79.75
2023-11-04T05:01:03.015Z,79.91
2023-11-04T05:02:03.004Z,79.40
2023-11-04T05:03:03.066Z,80.12
2023-11-04T05:04:03.080Z,79.61
2023-11-04T05:05:03.030Z,79.85
2023-11-04T05:06:02.981Z,79.75
2023-11-04T05:07:03.021Z,79.64
2023-11-04T05:08:02.969Z,79.75
2023-11-04T05:09:02.964Z,80.02
2023-11-04T05:10:02.978Z,79.85
2023-11-04T05:11:02.942Z,79.61
2023-11-04T05:12:02.968Z,79.40
2023-11-04T05:13:02.963Z,79.71
2023-11-04T05:14:02.938Z,79.91
2023-11-04T05:15:02.926Z,79.71
2023-11-04T05:16:02.955Z,79.81
2023-11-04T05:17:02.902Z,79.75
2023-11-04T05:18:03.155Z,79.50
2023-11-04T05:19:03.370Z,79.71
2023-11-04T05:20:02.900Z,79.71
2023-11-04T05:21:02.876Z,79.61
2023-11-04T05:22:02.908Z,79.81
2023-11-04T05:23:02.900Z,79.88
2023-11-04T05:24:02.870Z,79.61
2023-11-04T05:25:02.918Z,79.50
2023-11-04T05:26:02.859Z,79.40
2023-11-04T05:27:02.846Z,79.67
2023-11-04T05:28:02.857Z,79.71
2023-11-04T05:29:02.825Z,79.57
2023-11-04T05:30:02.853Z,79.71
2023-11-04T05:31:02.832Z,79.81
2023-11-04T05:32:02.810Z,79.71
2023-11-04T05:33:02.941Z,79.57
2023-11-04T05:34:02.866Z,79.77
2023-11-04T05:35:02.804Z,80.12
2023-11-04T05:36:02.783Z,79.91
2023-11-04T05:37:02.793Z,80.12
2023-11-04T05:38:02.771Z,80.12
2023-11-04T05:39:02.801Z,80.53
2023-11-04T05:40:02.821Z,80.53
2023-11-04T05:41:02.741Z,80.29
2023-11-04T05:42:02.760Z,80.12
2023-11-04T05:43:02.832Z,80.12
2023-11-04T05:44:02.742Z,80.49
2023-11-04T05:45:02.767Z,80.53
2023-11-04T05:46:02.742Z,80.43
2023-11-04T05:47:02.729Z,80.53
2023-11-04T05:48:02.781Z,80.63
2023-11-04T05:49:02.753Z,80.63
2023-11-04T05:50:02.701Z,80.80
2023-11-04T05:51:02.674Z,80.84
2023-11-04T05:52:02.767Z,81.05
2023-11-04T05:53:02.698Z,81.05
2023-11-04T05:54:02.658Z,80.84
2023-11-04T05:55:02.727Z,81.35
2023-11-04T05:56:02.664Z,81.01
2023-11-04T05:57:02.701Z,81.05
2023-11-04T05:58:02.913Z,80.94
2023-11-04T05:59:02.968Z,80.91
2023-11-04T06:00:02.819Z,81.05
2023-11-04T06:01:02.676Z,81.32
2023-11-04T06:02:03.370Z,81.62
2023-11-04T06:03:02.656Z,81.05
2023-11-04T06:04:02.715Z,80.94
2023-11-04T06:05:02.786Z,81.11
2023-11-04T06:06:02.583Z,80.94
2023-11-04T06:07:02.677Z,81.25
2023-11-04T06:08:02.567Z,80.80
2023-11-04T06:09:02.571Z,80.94
2023-11-04T06:10:02.613Z,81.67
2023-11-04T06:11:02.689Z,81.62
2023-11-04T06:12:02.589Z,81.05
2023-11-04T06:13:02.559Z,81.15
2023-11-04T06:14:02.537Z,81.01
2023-11-04T06:15:02.547Z,80.60
2023-11-04T06:16:02.540Z,81.11
2023-11-04T06:17:02.511Z,80.84
2023-11-04T06:18:02.548Z,80.80
2023-11-04T06:19:02.675Z,80.70
2023-11-04T06:20:02.521Z,80.60
2023-11-04T06:21:02.513Z,80.91
2023-11-04T06:22:02.517Z,80.80
2023-11-04T06:23:03.346Z,81.32
2023-11-04T06:24:02.483Z,81.52
2023-11-04T06:25:02.945Z,81.11
2023-11-04T06:26:02.474Z,81.42
2023-11-04T06:27:02.466Z,81.52
2023-11-04T06:28:02.476Z,81.52
2023-11-04T06:29:02.451Z,81.42
2023-11-04T06:30:02.491Z,81.01
2023-11-04T06:31:02.454Z,80.80
2023-11-04T06:32:02.451Z,81.11
2023-11-04T06:33:02.450Z,81.01
2023-11-04T06:34:02.492Z,81.01
2023-11-04T06:35:02.537Z,80.80
2023-11-04T06:36:02.900Z,80.91
2023-11-04T06:37:02.429Z,80.91
2023-11-04T06:38:02.858Z,81.52
2023-11-04T06:39:02.390Z,81.52
2023-11-04T06:40:02.493Z,81.62
2023-11-04T06:41:02.347Z,80.70
2023-11-04T06:42:02.375Z,80.91
2023-11-04T06:43:02.487Z,80.91
2023-11-04T06:44:02.372Z,80.70
2023-11-04T06:45:02.436Z,80.77
2023-11-04T06:46:02.323Z,80.70
2023-11-04T06:47:02.335Z,81.01
2023-11-04T06:48:02.373Z,80.66
2023-11-04T06:49:02.358Z,80.08
2023-11-04T06:50:02.320Z,80.15
2023-11-04T06:51:02.288Z,80.60
2023-11-04T06:52:02.342Z,80.46
2023-11-04T06:53:02.363Z,80.46
2023-11-04T06:54:02.289Z,79.84
2023-11-04T06:55:02.361Z,79.43
2023-11-04T06:56:02.245Z,79.84
2023-11-04T06:57:02.267Z,78.50
2023-11-04T06:58:02.296Z,79.63
2023-11-04T06:59:02.289Z,80.05
2023-11-04T07:00:02.381Z,78.98
2023-11-04T07:01:02.243Z,79.74
2023-11-04T07:02:02.211Z,79.33
2023-11-04T07:03:02.312Z,78.09
2023-11-04T07:04:02.286Z,78.20
2023-11-04T07:05:02.315Z,78.98
2023-11-04T07:06:02.268Z,79.63
2023-11-04T07:07:02.225Z,78.50
2023-11-04T07:08:02.349Z,77.89
2023-11-04T07:09:02.165Z,78.81
2023-11-04T07:10:02.217Z,78.20
2023-11-04T07:11:02.176Z,78.61
2023-11-04T07:12:02.143Z,79.02
2023-11-04T07:13:02.412Z,79.33
2023-11-04T07:14:02.131Z,79.29
2023-11-04T07:15:02.166Z,79.33
2023-11-04T07:16:02.135Z,77.99
2023-11-04T07:17:02.138Z,78.06
2023-11-04T07:18:02.276Z,77.75
2023-11-04T07:19:02.229Z,78.16
2023-11-04T07:20:02.080Z,78.36
2023-11-04T07:21:02.164Z,78.36
2023-11-04T07:22:02.232Z,78.16
2023-11-04T07:23:02.090Z,78.57
2023-11-04T07:24:02.065Z,77.95
2023-11-04T07:25:02.082Z,78.02
2023-11-04T07:26:02.053Z,78.47
2023-11-04T07:27:02.049Z,78.16
2023-11-04T07:28:02.074Z,77.00
2023-11-04T07:29:02.065Z,77.13
2023-11-04T07:30:02.069Z,77.95
2023-11-04T07:31:02.102Z,77.51
2023-11-04T07:32:02.191Z,77.51
2023-11-04T07:33:02.131Z,77.00
2023-11-04T07:34:02.069Z,76.68
2023-11-04T07:35:02.041Z,77.40
2023-11-04T07:36:02.025Z,77.92
2023-11-04T07:37:02.054Z,77.30
2023-11-04T07:38:01.981Z,77.71
2023-11-04T07:39:01.990Z,77.81
2023-11-04T07:40:02.195Z,77.61
2023-11-04T07:41:02.080Z,77.81
2023-11-04T07:42:01.937Z,76.65
2023-11-04T07:43:01.972Z,76.62
2023-11-04T07:44:01.922Z,75.86
2023-11-04T07:45:01.927Z,75.35
2023-11-04T07:46:01.945Z,74.94
2023-11-04T07:47:01.946Z,74.70
2023-11-04T07:48:01.984Z,74.70
2023-11-04T07:49:01.921Z,75.31
2023-11-04T07:50:01.895Z,75.52
2023-11-04T07:51:01.895Z,74.84
2023-11-04T07:52:02.008Z,75.56
2023-11-04T07:53:01.903Z,75.45
2023-11-04T07:54:01.882Z,76.37
2023-11-04T07:55:01.910Z,76.10
2023-11-04T07:56:01.921Z,76.20
2023-11-04T07:57:01.834Z,76.10
2023-11-04T07:58:01.885Z,76.62
2023-11-04T07:59:01.853Z,77.44
2023-11-04T08:00:01.885Z,77.26
2023-11-04T08:01:01.875Z,77.88
2023-11-04T08:02:01.816Z,77.78
2023-11-04T08:03:03.208Z,76.86
2023-11-04T08:04:01.950Z,78.23
2023-11-04T08:05:01.821Z,77.40
2023-11-04T08:06:01.784Z,78.02
2023-11-04T08:07:01.819Z,78.64
2023-11-04T08:08:01.758Z,79.49
2023-11-04T08:09:01.744Z,78.47
2023-11-04T08:10:01.769Z,78.16
2023-11-04T08:11:01.744Z,80.01
2023-11-04T08:12:01.796Z,79.77
2023-11-04T08:13:01.774Z,79.91
2023-11-04T08:14:01.846Z,79.66
2023-11-04T08:15:01.704Z,78.53
2023-11-04T08:16:01.866Z,78.36
2023-11-04T08:17:01.683Z,78.23
2023-11-04T08:18:01.773Z,78.57
2023-11-04T08:19:01.742Z,79.77
2023-11-04T08:20:01.682Z,77.81
2023-11-04T08:21:01.670Z,78.12
2023-11-04T08:22:01.735Z,79.77
2023-11-04T08:23:01.641Z,79.56
2023-11-04T08:24:01.647Z,79.46
2023-11-04T08:25:01.745Z,79.56
2023-11-04T08:26:01.626Z,79.63
2023-11-04T08:27:01.621Z,79.97
2023-11-04T08:28:01.637Z,79.32
2023-11-04T08:29:01.619Z,78.81
2023-11-04T08:30:01.652Z,79.22
2023-11-04T08:31:01.633Z,77.98
2023-11-04T08:32:01.576Z,78.39
2023-11-04T08:33:01.722Z,79.08
2023-11-04T08:34:01.629Z,79.22
2023-11-04T08:35:01.600Z,79.01
2023-11-04T08:36:01.553Z,79.22
2023-11-04T08:37:01.606Z,78.19
2023-11-04T08:38:01.538Z,78.09
2023-11-04T08:39:01.533Z,77.88
2023-11-04T08:40:01.569Z,78.19
2023-11-04T08:41:01.540Z,78.09
2023-11-04T08:42:01.511Z,78.19
2023-11-04T08:43:01.550Z,78.12
2023-11-04T08:44:01.498Z,79.52
2023-11-04T08:45:01.524Z,78.60
2023-11-04T08:46:01.817Z,77.88
2023-11-04T08:47:01.504Z,78.09
2023-11-04T08:48:01.542Z,78.97
2023-11-04T08:49:01.605Z,78.50
2023-11-04T08:50:01.496Z,78.09
2023-11-04T08:51:01.498Z,78.29
2023-11-04T08:52:01.897Z,78.29
2023-11-04T08:53:01.540Z,79.25
2023-11-04T08:54:01.441Z,78.53
2023-11-04T08:55:01.694Z,78.91
2023-11-04T08:56:01.425Z,79.66
2023-11-04T08:57:01.410Z,79.42
2023-11-04T08:58:01.530Z,79.63
2023-11-04T08:59:01.408Z,79.63
2023-11-04T09:00:02.845Z,79.32
2023-11-04T09:01:01.464Z,78.91
2023-11-04T09:02:01.384Z,79.52
2023-11-04T09:03:01.404Z,79.83
2023-11-04T09:04:04.022Z,79.83
2023-11-04T09:05:07.675Z,79.93
2023-11-04T09:06:02.494Z,79.42
2023-11-04T09:07:01.567Z,79.42
2023-11-04T09:08:01.406Z,79.42
2023-11-04T09:09:01.319Z,79.93
2023-11-04T09:10:01.359Z,79.28
2023-11-04T09:11:01.749Z,79.52
2023-11-04T09:12:01.339Z,79.38
2023-11-04T09:13:01.416Z,79.52
2023-11-04T09:14:01.284Z,79.52
2023-11-04T09:15:01.281Z,79.63
2023-11-04T09:16:01.314Z,79.63
2023-11-04T09:17:01.299Z,79.32
2023-11-04T09:18:01.357Z,79.63
2023-11-04T09:19:01.312Z,79.83
2023-11-04T09:20:01.254Z,79.93
2023-11-04T09:21:01.324Z,79.83
2023-11-04T09:22:01.330Z,79.49
2023-11-04T09:23:01.267Z,79.59
2023-11-04T09:24:01.588Z,79.32
2023-11-04T09:25:01.265Z,79.83
2023-11-04T09:26:01.253Z,79.42
2023-11-04T09:27:01.204Z,79.83
2023-11-04T09:28:01.236Z,79.59
2023-11-04T09:29:01.180Z,79.59
2023-11-04T09:30:01.236Z,80.10
2023-11-04T09:31:01.220Z,80.00
2023-11-04T09:32:01.238Z,80.00
2023-11-04T09:33:01.265Z,80.45
2023-11-04T09:34:01.272Z,79.73
2023-11-04T09:35:01.283Z,79.69
2023-11-04T09:36:01.333Z,80.35
2023-11-04T09:37:01.164Z,80.65
2023-11-04T09:38:01.126Z,80.10
2023-11-04T09:39:01.135Z,79.49
2023-11-04T09:40:01.191Z,80.41
2023-11-04T09:41:01.119Z,80.10
2023-11-04T09:42:01.325Z,79.42
2023-11-04T09:43:01.084Z,79.28
2023-11-04T09:44:01.075Z,79.69
2023-11-04T09:45:01.074Z,79.63
2023-11-04T09:46:01.146Z,79.73
2023-11-04T09:47:01.064Z,79.80
2023-11-04T09:48:01.198Z,79.69
2023-11-04T09:49:01.191Z,79.49
2023-11-04T09:50:01.045Z,79.52
2023-11-04T09:51:01.079Z,79.93
2023-11-04T09:52:01.060Z,79.63
2023-11-04T09:53:01.226Z,80.04
2023-11-04T09:54:01.145Z,80.24
2023-11-04T09:55:01.393Z,80.86
2023-11-04T09:56:01.007Z,79.93
2023-11-04T09:57:00.993Z,79.73
2023-11-04T09:58:01.016Z,79.90
2023-11-04T09:59:01.099Z,79.80
2023-11-04T10:00:01.070Z,80.04
2023-11-04T10:01:01.039Z,79.73
2023-11-04T10:02:00.967Z,79.63
2023-11-04T10:03:01.048Z,79.63
2023-11-04T10:04:01.045Z,79.80
2023-11-04T10:05:01.033Z,79.42
2023-11-04T10:06:00.951Z,79.38
2023-11-04T10:07:01.009Z,79.38
2023-11-04T10:08:00.920Z,79.49
2023-11-04T10:09:00.913Z,79.28
2023-11-04T10:10:00.947Z,79.49
2023-11-04T10:11:00.920Z,80.21
2023-11-04T10:12:00.913Z,79.69
2023-11-04T10:13:00.939Z,78.87
2023-11-04T10:14:00.881Z,79.18
2023-11-04T10:15:00.870Z,79.49
2023-11-04T10:16:01.183Z,79.28
2023-11-04T10:17:00.893Z,78.97
2023-11-04T10:18:00.886Z,78.97
2023-11-04T10:19:00.955Z,79.45
2023-11-04T10:20:00.880Z,78.46
2023-11-04T10:21:00.904Z,79.18
2023-11-04T10:22:00.883Z,78.63
2023-11-04T10:23:00.813Z,78.22
2023-11-04T10:24:00.814Z,79.14
2023-11-04T10:25:00.848Z,79.14
2023-11-04T10:26:00.800Z,78.22
2023-11-04T10:27:00.829Z,77.71
2023-11-04T10:28:00.890Z,77.81
2023-11-04T10:29:00.816Z,77.74
2023-11-04T10:30:00.761Z,77.81
2023-11-04T10:31:00.818Z,77.40
2023-11-04T10:32:00.749Z,78.02
2023-11-04T10:33:00.782Z,77.50
2023-11-04T10:34:01.055Z,77.91
2023-11-04T10:35:00.726Z,77.06
2023-11-04T10:36:00.731Z,77.71
2023-11-04T10:37:14.363Z,77.26
2023-11-04T10:38:01.748Z,76.89
2023-11-04T10:39:00.701Z,77.20
2023-11-04T10:40:00.716Z,77.06
2023-11-04T10:41:00.694Z,77.16
2023-11-04T10:42:00.678Z,77.67
2023-11-04T10:43:00.732Z,77.67
2023-11-04T10:44:00.668Z,76.85
2023-11-04T10:45:00.662Z,77.57
2023-11-04T10:46:00.669Z,77.16
2023-11-04T10:47:00.645Z,76.31
2023-11-04T10:48:00.888Z,76.24
2023-11-04T10:49:00.741Z,76.20
2023-11-04T10:50:00.618Z,75.99
2023-11-04T10:51:00.617Z,75.38
2023-11-04T10:52:00.640Z,75.89
2023-11-04T10:53:00.624Z,75.99
2023-11-04T10:54:00.628Z,74.56
2023-11-04T10:55:00.647Z,74.94
2023-11-04T10:56:00.579Z,73.91
2023-11-04T10:57:00.583Z,73.81
2023-11-04T10:58:00.632Z,73.47
2023-11-04T10:59:00.595Z,73.47
2023-11-04T11:00:00.621Z,73.74
2023-11-04T11:01:00.551Z,73.44
2023-11-04T11:02:00.541Z,73.23
2023-11-04T11:03:00.619Z,73.03
2023-11-04T11:04:00.755Z,72.62
2023-11-04T11:05:00.651Z,72.11
2023-11-04T11:06:00.552Z,72.31
2023-11-04T11:07:00.586Z,71.80
2023-11-04T11:08:00.495Z,71.39
2023-11-04T11:09:00.498Z,72.00
2023-11-04T11:10:00.544Z,70.75
2023-11-04T11:11:00.489Z,71.25
2023-11-04T11:12:00.534Z,71.22
2023-11-04T11:13:00.545Z,70.00
2023-11-04T11:14:00.453Z,69.24
2023-11-04T11:15:00.477Z,70.17
2023-11-04T11:16:00.537Z,69.59
2023-11-04T11:17:00.430Z,70.00
2023-11-04T11:18:00.555Z,70.43
2023-11-04T11:19:00.475Z,70.75
2023-11-04T11:20:00.420Z,70.43
2023-11-04T11:21:00.399Z,72.00
2023-11-04T11:22:00.424Z,71.39
2023-11-04T11:23:00.456Z,71.70
2023-11-04T11:24:00.399Z,71.80
2023-11-04T11:25:00.446Z,71.42
2023-11-04T11:26:00.395Z,72.14
2023-11-04T11:27:00.361Z,71.73
2023-11-04T11:28:00.434Z,72.24
2023-11-04T11:29:00.347Z,72.41
2023-11-04T11:30:00.370Z,72.62
2023-11-04T11:31:00.375Z,72.11
2023-11-04T11:32:00.336Z,71.80
2023-11-04T11:33:00.400Z,71.97
2023-11-04T11:34:00.398Z,71.05
2023-11-04T11:35:00.358Z,70.81
2023-11-04T11:36:00.321Z,70.00
2023-11-04T11:37:00.322Z,70.92
2023-11-04T11:38:00.432Z,70.40
2023-11-04T11:39:00.272Z,70.81
2023-11-04T11:40:00.323Z,70.92
2023-11-04T11:41:00.257Z,70.43
2023-11-04T11:42:00.311Z,70.98
2023-11-04T11:43:00.307Z,71.70
2023-11-04T11:44:00.579Z,72.31
2023-11-04T11:45:00.230Z,72.00
2023-11-04T11:46:00.468Z,72.11
2023-11-04T11:47:00.292Z,71.62
2023-11-04T11:48:00.341Z,71.73
2023-11-04T11:49:00.312Z,72.28
2023-11-04T11:50:00.292Z,72.55
2023-11-04T11:51:00.188Z,72.89
2023-11-04T11:52:00.198Z,72.78
2023-11-04T11:53:00.164Z,73.06
2023-11-04T11:54:00.157Z,72.17
2023-11-04T11:55:00.262Z,71.94
2023-11-04T11:56:00.197Z,72.04
2023-11-04T11:57:00.294Z,72.96
2023-11-04T11:58:00.185Z,72.86
2023-11-04T11:59:00.132Z,72.14
2023-11-04T12:00:00.157Z,73.06
2023-11-04T12:01:00.381Z,71.53
2023-11-04T12:02:02.156Z,72.89
2023-11-04T12:03:00.173Z,72.65
2023-11-04T12:04:00.165Z,72.89
2023-11-04T12:05:00.208Z,72.17
2023-11-04T12:06:00.139Z,72.45
2023-11-04T12:07:00.096Z,72.07
2023-11-04T12:08:00.082Z,72.28
2023-11-04T12:09:00.059Z,72.48
2023-11-04T12:10:00.212Z,72.17
2023-11-04T12:11:00.037Z,73.13
2023-11-04T12:12:00.051Z,72.58
2023-11-04T12:13:00.092Z,73.10
2023-11-04T12:14:02.215Z,72.28
2023-11-04T12:15:00.018Z,73.10
2023-11-04T12:16:00.052Z,72.58
2023-11-04T12:16:59.995Z,73.50
2023-11-04T12:18:00.352Z,72.99
2023-11-04T12:19:00.097Z,73.50
2023-11-04T12:19:59.980Z,72.78
2023-11-04T12:20:59.978Z,73.50
2023-11-04T12:22:00.003Z,72.78
2023-11-04T12:22:59.983Z,73.10
2023-11-04T12:23:59.961Z,72.61
2023-11-04T12:25:00.081Z,72.89
2023-11-04T12:25:59.942Z,72.58
2023-11-04T12:26:59.929Z,72.48
2023-11-04T12:27:59.972Z,73.10
2023-11-04T12:28:59.934Z,72.28
2023-11-04T12:29:59.950Z,72.48
2023-11-04T12:30:59.982Z,72.17
2023-11-04T12:31:59.891Z,72.38
2023-11-04T12:32:59.931Z,72.38
2023-11-04T12:33:59.918Z,72.17
2023-11-04T12:34:59.977Z,72.28
2023-11-04T12:36:06.951Z,72.07
2023-11-04T12:37:00.891Z,72.07
2023-11-04T12:37:59.886Z,72.28
2023-11-04T12:38:59.867Z,72.28
2023-11-04T12:39:59.876Z,72.17
2023-11-04T12:40:59.823Z,71.36
2023-11-04T12:41:59.820Z,72.07
2023-11-04T12:42:59.850Z,71.77
2023-11-04T12:43:59.848Z,71.86
2023-11-04T12:44:59.788Z,72.07
2023-11-04T12:45:59.820Z,71.86
2023-11-04T12:46:59.810Z,71.01
2023-11-04T12:47:59.926Z,71.04
2023-11-04T12:49:00.007Z,70.64
2023-11-04T12:49:59.772Z,70.84
2023-11-04T12:50:59.859Z,71.15
2023-11-04T12:51:59.810Z,70.64
2023-11-04T12:52:59.999Z,70.71